Time;durP1;ratioP1;P1;durP2;ratioP2;P2;SDS_P1;SDS_P2;PMS_P1;PMS_P2;Temp;Humidity;BMP_temperature;BMP_pressure;BME280_temperature;BME280_humidity;BME280_pressure;Samples;Min_cycle;Max_cycle;Signal;HPM_P1;HPM_P2
2021/12/12 00:00:14;;;;;;;33.17;10.75;;;;;;;;;;5087659;28;20119;-52
2021/12/12 00:02:56;;;;;;;33.05;9.90;;;;;;;;;;5086145;28;20407;-50
2021/12/12 00:05:26;;;;;;;14.80;6.10;;;;;;;;;;5086507;28;20500;-52
2021/12/12 00:07:52;;;;;;;7.47;4.78;;;;;;;;;;5083426;28;20039;-51
2021/12/12 00:10:21;;;;;;;5.82;3.50;;;;;;;;;;5086838;28;20036;-52
2021/12/12 00:12:53;;;;;;;6.72;3.35;;;;;;;;;;5085438;28;20032;-52
2021/12/12 00:15:20;;;;;;;5.75;4.03;;;;;;;;;;5087000;28;20035;-57
2021/12/12 00:17:47;;;;;;;6.80;3.78;;;;;;;;;;5090274;28;20028;-51
2021/12/12 00:20:14;;;;;;;6.35;4.15;;;;;;;;;;5082644;28;20024;-50
2021/12/12 00:22:40;;;;;;;9.13;4.97;;;;;;;;;;5087180;28;20036;-53
2021/12/12 00:25:08;;;;;;;8.43;5.18;;;;;;;;;;5086714;28;20362;-52
2021/12/12 00:27:33;;;;;;;15.10;6.97;;;;;;;;;;5084704;28;20081;-53
2021/12/12 00:30:03;;;;;;;9.18;5.40;;;;;;;;;;5083436;28;20552;-56
2021/12/12 00:32:30;;;;;;;9.02;5.10;;;;;;;;;;5082834;28;20089;-54
2021/12/12 00:35:00;;;;;;;7.72;4.70;;;;;;;;;;5083032;28;20442;-57
2021/12/12 00:37:27;;;;;;;11.10;4.93;;;;;;;;;;5084930;28;20028;-51
2021/12/12 00:39:56;;;;;;;10.20;4.70;;;;;;;;;;5085644;28;20035;-54
2021/12/12 00:42:27;;;;;;;7.18;4.05;;;;;;;;;;5083999;28;20039;-52
2021/12/12 00:44:58;;;;;;;7.72;4.28;;;;;;;;;;5086335;28;20070;-51
2021/12/12 00:47:24;;;;;;;8.45;4.20;;;;;;;;;;5084980;28;20036;-51
2021/12/12 00:49:51;;;;;;;7.75;4.25;;;;;;;;;;5083510;28;20130;-53
2021/12/12 00:52:18;;;;;;;8.68;5.07;;;;;;;;;;5086897;28;20114;-53
2021/12/12 00:54:45;;;;;;;11.25;5.80;;;;;;;;;;5085778;28;20058;-51
2021/12/12 00:57:14;;;;;;;6.80;4.63;;;;;;;;;;5082725;28;20032;-52
2021/12/12 00:59:41;;;;;;;7.40;4.40;;;;;;;;;;5085332;28;20031;-52
2021/12/12 01:02:09;;;;;;;8.82;4.78;;;;;;;;;;5083360;28;20075;-51
2021/12/12 01:04:44;;;;;;;11.18;4.85;;;;;;;;;;5086843;28;20202;-51
2021/12/12 01:07:14;;;;;;;9.00;4.45;;;;;;;;;;5087152;28;20052;-51
2021/12/12 01:09:47;;;;;;;8.15;4.90;;;;;;;;;;5084594;28;20118;-52
2021/12/12 01:12:17;;;;;;;11.20;5.10;;;;;;;;;;5088306;28;20032;-52
2021/12/12 01:14:48;;;;;;;9.27;4.95;;;;;;;;;;5088476;28;20046;-51
2021/12/12 01:17:18;;;;;;;12.23;4.28;;;;;;;;;;5091883;28;20052;-52
2021/12/12 01:19:51;;;;;;;9.85;5.03;;;;;;;;;;5091427;28;20031;-57
2021/12/12 01:22:25;;;;;;;8.27;4.40;;;;;;;;;;5087291;28;20077;-53
2021/12/12 01:24:52;;;;;;;8.93;5.00;;;;;;;;;;5086741;28;20089;-54
2021/12/12 01:27:19;;;;;;;11.75;5.78;;;;;;;;;;5087203;28;20509;-54
2021/12/12 01:29:45;;;;;;;9.52;5.32;;;;;;;;;;5085730;28;20031;-52
2021/12/12 01:32:21;;;;;;;10.85;5.40;;;;;;;;;;5085686;28;20085;-55
2021/12/12 01:34:50;;;;;;;8.77;5.03;;;;;;;;;;5085885;28;20023;-53
2021/12/12 01:39:53;;;;;;;10.80;5.20;;;;;;;;;;5089540;28;20435;-52
2021/12/12 01:42:26;;;;;;;11.73;5.18;;;;;;;;;;5085651;28;20024;-51
2021/12/12 01:45:04;;;;;;;9.63;5.20;;;;;;;;;;5089396;28;20517;-52
2021/12/12 01:47:38;;;;;;;8.25;5.05;;;;;;;;;;5088427;28;20074;-53
2021/12/12 01:50:16;;;;;;;9.40;4.82;;;;;;;;;;5084502;28;20036;-53
2021/12/12 01:52:42;;;;;;;9.88;5.40;;;;;;;;;;5086773;28;20078;-51
2021/12/12 01:55:24;;;;;;;10.95;5.75;;;;;;;;;;5088161;28;20173;-51
2021/12/12 01:57:53;;;;;;;10.70;5.68;;;;;;;;;;5087808;28;20031;-52
2021/12/12 02:00:44;;;;;;;12.57;5.70;;;;;;;;;;5086895;28;20028;-55
2021/12/12 02:03:12;;;;;;;10.95;5.72;;;;;;;;;;5088282;28;20023;-50
2021/12/12 02:05:39;;;;;;;10.88;5.30;;;;;;;;;;5088022;28;20031;-53
2021/12/12 02:08:11;;;;;;;8.13;4.85;;;;;;;;;;5085829;28;20020;-52
2021/12/12 02:10:42;;;;;;;10.32;5.13;;;;;;;;;;5085913;28;20028;-51
2021/12/12 02:13:10;;;;;;;9.45;5.50;;;;;;;;;;5088376;28;20040;-51
2021/12/12 02:15:37;;;;;;;9.27;5.03;;;;;;;;;;5087957;28;20036;-51
2021/12/12 02:18:15;;;;;;;10.23;4.53;;;;;;;;;;5086750;28;20034;-52
2021/12/12 02:21:03;;;;;;;8.48;4.57;;;;;;;;;;5086711;28;20542;-51
2021/12/12 02:23:45;;;;;;;9.05;4.53;;;;;;;;;;5086780;28;20111;-57
2021/12/12 02:37:09;;;;;;;9.10;4.72;;;;;;;;;;5087879;28;20058;-51
2021/12/12 02:39:36;;;;;;;9.93;4.30;;;;;;;;;;5088982;28;20032;-52
2021/12/12 02:42:11;;;;;;;8.82;4.35;;;;;;;;;;5087703;28;20509;-51
2021/12/12 02:44:39;;;;;;;9.07;4.47;;;;;;;;;;5085468;28;20028;-55
2021/12/12 02:47:12;;;;;;;11.43;4.85;;;;;;;;;;5089980;28;20517;-58
2021/12/12 02:52:21;;;;;;;12.40;4.95;;;;;;;;;;5086882;28;20031;-54
2021/12/12 02:54:47;;;;;;;9.20;4.88;;;;;;;;;;5086324;28;20131;-51
2021/12/12 02:57:15;;;;;;;10.95;5.13;;;;;;;;;;5086507;28;20537;-51
2021/12/12 02:59:43;;;;;;;10.18;4.80;;;;;;;;;;5089104;28;20119;-51
2021/12/12 03:02:14;;;;;;;9.32;5.07;;;;;;;;;;5086431;28;20042;-51
2021/12/12 03:04:41;;;;;;;9.48;4.60;;;;;;;;;;5087020;28;20334;-52
2021/12/12 03:07:09;;;;;;;10.23;4.78;;;;;;;;;;5087009;28;20028;-51
2021/12/12 03:09:45;;;;;;;7.32;4.65;;;;;;;;;;5087003;28;20522;-51
2021/12/12 03:12:30;;;;;;;8.43;4.10;;;;;;;;;;5085176;28;20016;-54
2021/12/12 03:14:59;;;;;;;8.63;4.35;;;;;;;;;;5089145;28;20418;-52
2021/12/12 03:17:24;;;;;;;7.80;4.22;;;;;;;;;;5084740;28;20032;-57
2021/12/12 03:19:57;;;;;;;8.07;4.38;;;;;;;;;;5088915;28;20081;-53
2021/12/12 03:22:25;;;;;;;12.23;4.80;;;;;;;;;;5082447;28;20019;-51
2021/12/12 03:24:51;;;;;;;7.93;3.72;;;;;;;;;;5085857;28;20035;-52
2021/12/12 03:27:19;;;;;;;10.25;4.28;;;;;;;;;;5086503;28;20042;-57
2021/12/12 03:29:47;;;;;;;11.18;4.93;;;;;;;;;;5084168;28;20028;-54
2021/12/12 03:32:16;;;;;;;8.95;4.63;;;;;;;;;;5080786;28;20025;-55
2021/12/12 03:34:46;;;;;;;9.10;4.00;;;;;;;;;;5085209;28;20032;-52
2021/12/12 03:37:14;;;;;;;7.05;3.78;;;;;;;;;;5089611;28;20040;-53
2021/12/12 03:39:43;;;;;;;7.32;3.80;;;;;;;;;;5087876;28;20031;-52
2021/12/12 03:42:14;;;;;;;5.60;3.57;;;;;;;;;;5083994;28;20032;-51
2021/12/12 03:44:40;;;;;;;4.43;3.10;;;;;;;;;;5085930;28;20277;-54
2021/12/12 03:47:19;;;;;;;10.07;4.97;;;;;;;;;;5084973;28;20545;-55
2021/12/12 03:49:46;;;;;;;8.20;4.53;;;;;;;;;;5086383;28;20032;-53
2021/12/12 03:52:13;;;;;;;9.13;4.60;;;;;;;;;;5083777;28;20410;-53
2021/12/12 03:54:39;;;;;;;7.72;4.28;;;;;;;;;;5086238;28;20115;-49
2021/12/12 03:57:07;;;;;;;9.10;4.45;;;;;;;;;;5086688;28;20123;-52
2021/12/12 03:59:33;;;;;;;8.02;4.15;;;;;;;;;;5085712;28;20031;-54
2021/12/12 04:01:59;;;;;;;7.82;4.47;;;;;;;;;;5090319;28;20027;-51
2021/12/12 04:04:30;;;;;;;9.07;4.55;;;;;;;;;;5090494;28;20028;-50
2021/12/12 04:06:57;;;;;;;8.27;4.40;;;;;;;;;;5086154;28;20528;-53
2021/12/12 04:09:23;;;;;;;7.82;3.92;;;;;;;;;;5085628;28;20059;-52
2021/12/12 04:11:55;;;;;;;7.18;3.75;;;;;;;;;;5086820;28;20315;-52
2021/12/12 04:14:23;;;;;;;7.22;4.43;;;;;;;;;;5085859;28;20090;-54
2021/12/12 04:16:52;;;;;;;7.18;4.05;;;;;;;;;;5084272;28;20401;-53
2021/12/12 04:19:18;;;;;;;5.90;3.55;;;;;;;;;;5087342;28;20038;-53
2021/12/12 04:21:45;;;;;;;5.53;3.30;;;;;;;;;;5084486;28;20032;-54
2021/12/12 04:24:16;;;;;;;5.53;3.22;;;;;;;;;;5084305;28;20036;-51
2021/12/12 04:26:42;;;;;;;5.28;3.40;;;;;;;;;;5087337;28;20428;-53
2021/12/12 04:29:09;;;;;;;5.82;3.30;;;;;;;;;;5086222;28;20028;-54
2021/12/12 04:31:37;;;;;;;10.10;4.07;;;;;;;;;;5083202;28;20032;-53
2021/12/12 04:34:04;;;;;;;8.05;3.72;;;;;;;;;;5084351;28;20111;-54
2021/12/12 04:36:36;;;;;;;6.05;3.20;;;;;;;;;;5086554;28;20054;-53
2021/12/12 04:39:10;;;;;;;5.47;3.42;;;;;;;;;;5090508;28;20032;-52
2021/12/12 04:41:36;;;;;;;7.65;3.25;;;;;;;;;;5092520;28;21966;-53
2021/12/12 04:44:03;;;;;;;6.07;3.22;;;;;;;;;;5087417;28;20589;-54
2021/12/12 04:49:54;;;;;;;5.78;3.70;;;;;;;;;;5090779;28;20446;-54
2021/12/12 04:52:09;;;;;;;5.25;3.22;;;;;;;;;;5086861;28;20221;-52
2021/12/12 04:54:49;;;;;;;6.07;3.50;;;;;;;;;;5088472;28;20183;-51
2021/12/12 04:57:29;;;;;;;4.32;2.92;;;;;;;;;;5090507;28;20055;-53
2021/12/12 05:00:10;;;;;;;6.85;3.50;;;;;;;;;;5090012;28;20098;-53
2021/12/12 05:02:53;;;;;;;7.50;3.72;;;;;;;;;;5086170;28;20568;-54
2021/12/12 05:05:25;;;;;;;6.50;3.50;;;;;;;;;;5088344;28;20502;-54
2021/12/12 05:07:59;;;;;;;6.68;3.50;;;;;;;;;;5087425;28;20031;-54
2021/12/12 05:10:49;;;;;;;8.35;3.53;;;;;;;;;;5088893;28;20031;-56
2021/12/12 05:13:26;;;;;;;5.35;3.50;;;;;;;;;;5087732;28;20250;-51
2021/12/12 05:15:59;;;;;;;9.23;4.20;;;;;;;;;;5088856;28;20058;-54
2021/12/12 05:18:36;;;;;;;7.30;3.60;;;;;;;;;;5089015;28;20110;-51
2021/12/12 05:21:10;;;;;;;5.53;2.97;;;;;;;;;;5089586;28;20774;-52
2021/12/12 05:23:40;;;;;;;5.07;3.33;;;;;;;;;;5087234;28;20043;-58
2021/12/12 05:26:15;;;;;;;5.30;3.20;;;;;;;;;;5089905;28;20020;-52
2021/12/12 05:29:00;;;;;;;5.75;3.35;;;;;;;;;;5084700;28;20262;-54
2021/12/12 05:31:26;;;;;;;4.03;3.38;;;;;;;;;;5088257;28;20085;-55
2021/12/12 05:33:53;;;;;;;5.40;3.08;;;;;;;;;;5085488;28;20033;-52
2021/12/12 05:36:19;;;;;;;5.38;3.13;;;;;;;;;;5088225;28;20028;-57
2021/12/12 05:38:47;;;;;;;5.13;3.40;;;;;;;;;;5087296;28;20055;-53
2021/12/12 05:41:14;;;;;;;4.95;3.20;;;;;;;;;;5089205;28;20029;-52
2021/12/12 05:43:40;;;;;;;5.72;3.05;;;;;;;;;;5087345;28;20055;-55
2021/12/12 05:46:06;;;;;;;4.85;3.17;;;;;;;;;;5087893;28;20500;-53
2021/12/12 05:48:32;;;;;;;6.50;3.03;;;;;;;;;;5087722;28;20071;-56
2021/12/12 05:51:00;;;;;;;4.38;2.85;;;;;;;;;;5087517;28;20341;-51
2021/12/12 05:53:25;;;;;;;6.97;3.05;;;;;;;;;;5089080;28;20020;-53
2021/12/12 05:55:51;;;;;;;6.28;3.22;;;;;;;;;;5089806;28;20378;-51
2021/12/12 05:58:20;;;;;;;5.28;3.00;;;;;;;;;;5087179;28;20027;-52
2021/12/12 06:00:48;;;;;;;5.30;3.10;;;;;;;;;;5087113;28;20028;-53
2021/12/12 06:03:17;;;;;;;5.80;3.00;;;;;;;;;;5088229;28;20032;-51
2021/12/12 06:05:42;;;;;;;6.30;3.45;;;;;;;;;;5088397;28;20341;-55
2021/12/12 06:08:08;;;;;;;8.52;3.60;;;;;;;;;;5090267;28;20028;-52
2021/12/12 06:10:36;;;;;;;6.40;2.85;;;;;;;;;;5086578;28;20030;-57
2021/12/12 06:13:09;;;;;;;6.50;3.10;;;;;;;;;;5086544;28;20070;-57
2021/12/12 06:15:35;;;;;;;5.25;3.28;;;;;;;;;;5086797;28;20565;-57
2021/12/12 06:18:01;;;;;;;6.25;3.13;;;;;;;;;;5089168;28;20132;-57
2021/12/12 06:20:28;;;;;;;5.15;3.38;;;;;;;;;;5087177;28;20047;-57
2021/12/12 06:22:55;;;;;;;5.03;3.10;;;;;;;;;;5085870;28;20051;-57
2021/12/12 06:25:22;;;;;;;4.45;3.22;;;;;;;;;;5086498;28;20027;-58
2021/12/12 06:27:48;;;;;;;4.85;2.90;;;;;;;;;;5087812;28;20042;-58
2021/12/12 06:30:17;;;;;;;4.65;3.20;;;;;;;;;;5089523;28;20032;-58
2021/12/12 06:32:44;;;;;;;4.93;2.92;;;;;;;;;;5085782;28;20089;-59
2021/12/12 06:35:10;;;;;;;4.50;2.78;;;;;;;;;;5085924;28;20417;-57
2021/12/12 06:37:36;;;;;;;5.32;3.10;;;;;;;;;;5086742;28;20032;-58
2021/12/12 06:40:06;;;;;;;4.50;2.75;;;;;;;;;;5090035;28;20042;-57
2021/12/12 06:42:32;;;;;;;4.55;2.50;;;;;;;;;;5089509;28;20233;-58
2021/12/12 06:44:57;;;;;;;5.38;2.70;;;;;;;;;;5085974;28;20027;-56
2021/12/12 06:47:23;;;;;;;4.22;2.50;;;;;;;;;;5084812;28;20112;-56
2021/12/12 06:49:49;;;;;;;5.38;2.40;;;;;;;;;;5087087;28;20118;-59
2021/12/12 06:52:16;;;;;;;4.63;2.88;;;;;;;;;;5087405;28;20034;-57
2021/12/12 06:54:42;;;;;;;4.80;2.88;;;;;;;;;;5087336;28;20085;-57
2021/12/12 06:57:12;;;;;;;5.88;3.63;;;;;;;;;;5086000;28;20026;-57
2021/12/12 06:59:39;;;;;;;5.55;3.50;;;;;;;;;;5088607;28;20032;-57
2021/12/12 07:02:07;;;;;;;5.65;3.20;;;;;;;;;;5087752;28;20031;-57
2021/12/12 07:04:34;;;;;;;5.93;2.90;;;;;;;;;;5087666;28;20028;-58
2021/12/12 07:07:03;;;;;;;5.60;2.67;;;;;;;;;;5087522;28;20105;-58
2021/12/12 07:09:32;;;;;;;4.77;2.63;;;;;;;;;;5086173;28;20098;-56
2021/12/12 07:12:02;;;;;;;5.22;2.70;;;;;;;;;;5087729;28;20132;-57
2021/12/12 07:14:28;;;;;;;5.20;2.90;;;;;;;;;;5086172;28;20028;-56
2021/12/12 07:16:55;;;;;;;7.55;3.90;;;;;;;;;;5088233;28;20031;-56
2021/12/12 07:19:22;;;;;;;13.90;5.95;;;;;;;;;;5085631;28;20077;-57
2021/12/12 07:21:49;;;;;;;10.63;4.70;;;;;;;;;;5089268;28;20055;-56
2021/12/12 07:24:16;;;;;;;7.03;3.92;;;;;;;;;;5084708;28;20036;-56
2021/12/12 07:26:42;;;;;;;7.68;3.70;;;;;;;;;;5085631;28;20070;-57
2021/12/12 07:29:09;;;;;;;6.15;3.80;;;;;;;;;;5086916;28;20474;-59
2021/12/12 07:31:37;;;;;;;6.90;3.72;;;;;;;;;;5085882;28;20083;-57
2021/12/12 07:34:06;;;;;;;6.95;4.05;;;;;;;;;;5084512;28;20028;-57
2021/12/12 07:36:36;;;;;;;8.00;4.20;;;;;;;;;;5083759;28;20436;-58
2021/12/12 07:39:11;;;;;;;6.35;3.58;;;;;;;;;;5085453;28;20024;-60
2021/12/12 07:41:39;;;;;;;7.88;4.03;;;;;;;;;;5085880;28;20031;-57
2021/12/12 07:44:08;;;;;;;7.70;3.97;;;;;;;;;;5082167;28;20527;-57
2021/12/12 07:46:34;;;;;;;8.60;3.67;;;;;;;;;;5084613;28;20548;-55
2021/12/12 07:49:00;;;;;;;9.63;4.57;;;;;;;;;;5085926;28;20040;-57
2021/12/12 07:51:27;;;;;;;7.82;4.65;;;;;;;;;;5090450;28;20098;-55
2021/12/12 07:53:55;;;;;;;21.70;8.57;;;;;;;;;;5084290;28;20117;-56
2021/12/12 07:56:23;;;;;;;14.68;6.07;;;;;;;;;;5084522;28;20039;-56
2021/12/12 07:58:50;;;;;;;7.60;4.28;;;;;;;;;;5083830;28;20080;-57
2021/12/12 08:01:16;;;;;;;6.68;4.10;;;;;;;;;;5087752;28;20024;-55
2021/12/12 08:03:44;;;;;;;9.18;4.78;;;;;;;;;;5097709;28;20060;-56
2021/12/12 08:06:14;;;;;;;9.32;4.38;;;;;;;;;;5086764;28;20020;-55
2021/12/12 08:08:41;;;;;;;10.18;4.65;;;;;;;;;;5082221;28;20039;-57
2021/12/12 08:11:07;;;;;;;6.78;3.80;;;;;;;;;;5083780;28;20115;-55
2021/12/12 08:13:34;;;;;;;6.47;3.10;;;;;;;;;;5083366;28;20023;-56
2021/12/12 08:16:01;;;;;;;8.73;3.78;;;;;;;;;;5083628;28;20118;-57
2021/12/12 08:18:27;;;;;;;8.13;4.25;;;;;;;;;;5084725;28;20143;-56
2021/12/12 08:20:53;;;;;;;8.65;4.57;;;;;;;;;;5085355;28;20031;-55
2021/12/12 08:23:20;;;;;;;9.30;4.28;;;;;;;;;;5083307;28;20019;-57
2021/12/12 08:25:48;;;;;;;10.00;4.15;;;;;;;;;;5086548;28;20051;-57
2021/12/12 08:28:15;;;;;;;12.23;4.50;;;;;;;;;;5086267;28;20588;-55
2021/12/12 08:30:41;;;;;;;7.88;4.40;;;;;;;;;;5088144;28;20039;-56
2021/12/12 08:33:08;;;;;;;8.50;4.45;;;;;;;;;;5087513;28;20039;-56
2021/12/12 08:35:36;;;;;;;7.28;3.58;;;;;;;;;;5085813;28;20033;-56
2021/12/12 08:38:04;;;;;;;7.45;4.10;;;;;;;;;;5083606;28;20536;-56
2021/12/12 08:40:34;;;;;;;7.72;3.95;;;;;;;;;;5088993;28;20028;-58
2021/12/12 08:43:00;;;;;;;11.52;5.40;;;;;;;;;;5084752;28;20427;-56
2021/12/12 08:45:29;;;;;;;8.43;3.95;;;;;;;;;;5081836;28;20032;-57
2021/12/12 08:47:55;;;;;;;5.28;3.00;;;;;;;;;;5084216;28;20111;-55
2021/12/12 08:50:25;;;;;;;6.20;3.30;;;;;;;;;;5089787;28;20052;-59
2021/12/12 08:52:51;;;;;;;;;;;;;;;;;;5087499;28;20135;-56
2021/12/12 08:55:21;;;;;;;5.05;3.15;;;;;;;;;;5085448;28;20371;-55
2021/12/12 08:58:14;;;;;;;;;;;;;;;;;;5084745;28;20038;-59
2021/12/12 09:00:46;;;;;;;6.43;3.63;;;;;;;;;;5085145;28;20061;-56
2021/12/12 09:03:16;;;;;;;7.45;3.78;;;;;;;;;;5083275;28;20077;-57
2021/12/12 09:05:42;;;;;;;;;;;;;;;;;;5085608;28;20454;-56
2021/12/12 09:08:12;;;;;;;5.25;3.40;;;;;;;;;;5085318;28;20266;-56
2021/12/12 09:10:43;;;;;;;6.32;3.70;;;;;;;;;;5086624;28;20031;-55
2021/12/12 09:13:29;;;;;;;9.23;4.18;;;;;;;;;;5084006;28;20028;-57
2021/12/12 09:16:08;;;;;;;6.32;3.15;;;;;;;;;;5087589;28;20107;-55
2021/12/12 09:18:43;;;;;;;7.75;3.92;;;;;;;;;;5081656;28;20118;-56
2021/12/12 09:21:14;;;;;;;6.10;3.42;;;;;;;;;;5086411;28;20036;-54
2021/12/12 09:23:45;;;;;;;6.93;3.70;;;;;;;;;;5086100;28;20438;-54
2021/12/12 09:26:16;;;;;;;5.35;3.35;;;;;;;;;;5084708;28;20035;-53
2021/12/12 09:28:50;;;;;;;6.32;3.63;;;;;;;;;;5088322;28;20055;-57
2021/12/12 09:31:28;;;;;;;7.32;4.10;;;;;;;;;;5089133;28;20060;-54
2021/12/12 09:34:01;;;;;;;6.50;3.58;;;;;;;;;;5084007;28;20036;-56
2021/12/12 09:36:44;;;;;;;4.75;3.05;;;;;;;;;;5091255;28;20039;-57
2021/12/12 09:39:24;;;;;;;4.90;3.03;;;;;;;;;;5088562;28;20038;-56
2021/12/12 09:42:01;;;;;;;6.60;3.65;;;;;;;;;;5087267;28;20024;-54
2021/12/12 09:44:29;;;;;;;5.95;2.80;;;;;;;;;;5081226;28;20405;-56
2021/12/12 09:53:07;;;;;;;4.75;2.92;;;;;;;;;;5087824;28;20097;-57
2021/12/12 09:56:00;;;;;;;8.27;3.70;;;;;;;;;;5088711;28;20494;-57
2021/12/12 09:58:53;;;;;;;6.18;2.78;;;;;;;;;;5086519;28;20544;-58
2021/12/12 10:01:40;;;;;;;7.60;3.10;;;;;;;;;;5087331;28;20024;-57
2021/12/12 10:04:29;;;;;;;5.00;2.72;;;;;;;;;;5090396;28;20020;-58
2021/12/12 10:07:03;;;;;;;3.88;2.65;;;;;;;;;;5088198;28;20141;-58
2021/12/12 10:10:11;;;;;;;7.22;3.08;;;;;;;;;;5087703;28;20394;-57
2021/12/12 10:12:44;;;;;;;11.75;5.20;;;;;;;;;;5025769;28;20190;-56
2021/12/12 10:15:16;;;;;;;11.60;7.18;;;;;;;;;;5026393;28;20447;-57
2021/12/12 10:17:46;;;;;;;14.55;7.55;;;;;;;;;;5059528;28;20035;-59
2021/12/12 10:20:36;;;;;;;11.80;6.68;;;;;;;;;;5092786;28;20031;-56
2021/12/12 10:23:25;;;;;;;12.30;6.20;;;;;;;;;;5087426;28;20020;-57
2021/12/12 10:25:58;;;;;;;11.68;6.28;;;;;;;;;;5089208;28;20024;-55
2021/12/12 10:28:49;;;;;;;11.63;7.43;;;;;;;;;;5086765;28;20043;-55
2021/12/12 10:31:32;;;;;;;9.95;5.70;;;;;;;;;;5087127;28;20077;-57
2021/12/12 10:34:05;;;;;;;5.93;3.20;;;;;;;;;;5084849;28;20054;-55
2021/12/12 10:36:42;;;;;;;4.50;2.88;;;;;;;;;;5087838;28;20376;-57
2021/12/12 10:39:16;;;;;;;4.82;3.05;;;;;;;;;;5089337;28;20428;-57
2021/12/12 10:41:59;;;;;;;8.43;4.88;;;;;;;;;;5088614;28;20028;-58
2021/12/12 10:44:41;;;;;;;20.13;10.07;;;;;;;;;;5090670;28;20027;-57
2021/12/12 10:47:23;;;;;;;9.85;5.82;;;;;;;;;;5090528;28;20070;-56
2021/12/12 10:50:12;;;;;;;8.90;4.82;;;;;;;;;;5086343;28;20104;-55
2021/12/12 10:53:04;;;;;;;20.00;8.88;;;;;;;;;;5058532;27;20043;-56
2021/12/12 10:55:54;;;;;;;18.90;8.57;;;;;;;;;;5080451;28;20146;-56
2021/12/12 10:58:33;;;;;;;21.35;10.65;;;;;;;;;;5084990;28;20042;-57
2021/12/12 11:01:24;;;;;;;20.13;9.27;;;;;;;;;;5083523;28;20080;-57
2021/12/12 11:03:55;;;;;;;18.85;8.93;;;;;;;;;;5085782;28;20923;-58
2021/12/12 11:06:28;;;;;;;21.67;9.50;;;;;;;;;;5086556;28;20036;-58
2021/12/12 11:08:54;;;;;;;18.20;9.32;;;;;;;;;;5087244;28;20024;-57
2021/12/12 11:11:23;;;;;;;15.10;7.10;;;;;;;;;;5085360;28;20539;-58
2021/12/12 11:13:52;;;;;;;;;;;;;;;;;;5090843;28;20042;-55
2021/12/12 11:16:17;;;;;;;14.15;8.25;;;;;;;;;;5085992;28;19951;-56
2021/12/12 11:18:48;;;;;;;18.15;9.18;;;;;;;;;;5084338;28;20055;-58
2021/12/12 11:21:25;;;;;;;17.67;9.27;;;;;;;;;;5090563;28;20019;-57
2021/12/12 11:24:00;;;;;;;16.48;9.27;;;;;;;;;;5086420;28;20035;-58
2021/12/12 11:26:42;;;;;;;16.42;9.27;;;;;;;;;;5086877;28;20032;-55
2021/12/12 11:29:15;;;;;;;18.60;9.27;;;;;;;;;;5087144;28;20020;-58
2021/12/12 11:31:51;;;;;;;16.00;9.57;;;;;;;;;;5086911;28;20036;-58
2021/12/12 11:34:18;;;;;;;20.45;9.63;;;;;;;;;;5080742;28;20056;-57
2021/12/12 11:37:21;;;;;;;16.63;8.98;;;;;;;;;;5085165;28;20031;-58
2021/12/12 11:39:53;;;;;;;14.65;8.05;;;;;;;;;;5084889;28;20028;-57
2021/12/12 11:42:32;;;;;;;18.48;9.55;;;;;;;;;;5083663;28;20027;-56
2021/12/12 11:45:03;;;;;;;17.88;8.82;;;;;;;;;;5086947;28;20036;-56
2021/12/12 11:47:44;;;;;;;13.15;7.72;;;;;;;;;;5084971;28;20486;-56
2021/12/12 11:50:28;;;;;;;14.38;8.25;;;;;;;;;;5086756;28;20056;-58
2021/12/12 11:53:05;;;;;;;14.40;8.13;;;;;;;;;;5086594;28;20020;-56
2021/12/12 11:55:49;;;;;;;13.63;7.97;;;;;;;;;;5086283;28;20070;-55
2021/12/12 11:58:22;;;;;;;12.43;8.02;;;;;;;;;;5083761;28;20024;-56
2021/12/12 12:01:08;;;;;;;17.40;9.30;;;;;;;;;;5085318;28;20402;-58
2021/12/12 12:03:58;;;;;;;18.02;9.10;;;;;;;;;;5081655;28;20066;-59
2021/12/12 12:06:23;;;;;;;;;;;;;;;;;;5083898;28;20040;-60
2021/12/12 12:09:05;;;;;;;16.10;7.78;;;;;;;;;;5092797;28;19911;-59
2021/12/12 12:11:45;;;;;;;12.55;7.13;;;;;;;;;;5086827;28;20082;-59
2021/12/12 12:14:24;;;;;;;12.60;6.97;;;;;;;;;;5086295;28;20032;-59
2021/12/12 12:17:25;;;;;;;14.38;8.07;;;;;;;;;;5081777;28;20028;-59
2021/12/12 12:20:03;;;;;;;12.70;7.75;;;;;;;;;;5068009;28;20178;-58
2021/12/12 12:22:29;;;;;;;13.10;6.68;;;;;;;;;;5084088;28;20028;-58
2021/12/12 12:25:14;;;;;;;16.95;8.95;;;;;;;;;;5083217;28;20049;-59
2021/12/12 12:27:45;;;;;;;14.65;8.27;;;;;;;;;;5084842;28;20064;-59
2021/12/12 12:30:34;;;;;;;11.75;7.80;;;;;;;;;;5088167;28;20031;-59
2021/12/12 12:33:38;;;;;;;12.38;7.78;;;;;;;;;;5055806;28;20047;-58
2021/12/12 12:36:41;;;;;;;15.40;8.57;;;;;;;;;;5053979;28;20040;-60
2021/12/12 12:39:24;;;;;;;16.02;9.88;;;;;;;;;;5084301;28;20054;-59
2021/12/12 12:42:01;;;;;;;26.40;12.48;;;;;;;;;;5084534;28;20119;-59
2021/12/12 12:45:04;;;;;;;12.80;6.70;;;;;;;;;;5085182;28;20024;-58
2021/12/12 12:47:51;;;;;;;6.65;3.65;;;;;;;;;;5084340;28;20074;-58
2021/12/12 12:50:54;;;;;;;4.50;3.53;;;;;;;;;;5087926;28;20470;-58
2021/12/12 12:53:44;;;;;;;7.65;3.60;;;;;;;;;;5081907;28;20029;-58
2021/12/12 12:56:46;;;;;;;6.90;3.55;;;;;;;;;;5083051;28;20024;-58
2021/12/12 12:59:36;;;;;;;4.25;2.28;;;;;;;;;;5083787;28;20055;-60
2021/12/12 13:02:11;;;;;;;7.22;2.40;;;;;;;;;;5090321;28;20030;-59
2021/12/12 13:04:59;;;;;;;7.05;2.53;;;;;;;;;;5090850;28;20036;-59
2021/12/12 13:08:01;;;;;;;6.43;3.00;;;;;;;;;;5093634;28;20031;-58
2021/12/12 13:10:31;;;;;;;5.57;2.58;;;;;;;;;;5084713;28;20031;-58
2021/12/12 13:13:05;;;;;;;4.10;2.20;;;;;;;;;;5088503;28;20027;-58
2021/12/12 13:15:35;;;;;;;5.35;2.33;;;;;;;;;;5086626;28;20024;-58
2021/12/12 13:18:22;;;;;;;3.17;2.17;;;;;;;;;;5086468;28;20026;-58
2021/12/12 13:21:01;;;;;;;6.05;2.45;;;;;;;;;;5088774;28;20107;-58
2021/12/12 13:23:56;;;;;;;6.65;3.00;;;;;;;;;;5086716;28;20031;-58
2021/12/12 13:27:02;;;;;;;5.90;2.92;;;;;;;;;;5088712;28;20038;-60
2021/12/12 13:30:04;;;;;;;3.20;2.00;;;;;;;;;;5089850;28;20101;-58
2021/12/12 13:32:42;;;;;;;4.55;2.35;;;;;;;;;;5089502;28;20035;-58
2021/12/12 13:35:11;;;;;;;3.50;2.28;;;;;;;;;;5089301;28;20027;-58
2021/12/12 13:37:45;;;;;;;5.10;2.30;;;;;;;;;;5088850;28;20470;-58
2021/12/12 13:40:38;;;;;;;5.30;3.28;;;;;;;;;;5085501;28;20060;-58
2021/12/12 13:43:12;;;;;;;7.75;4.10;;;;;;;;;;5090414;28;20405;-58
2021/12/12 13:45:50;;;;;;;4.68;3.03;;;;;;;;;;5089871;28;20135;-58
2021/12/12 13:48:30;;;;;;;5.90;2.70;;;;;;;;;;5086763;28;20473;-58
2021/12/12 13:51:38;;;;;;;5.57;2.80;;;;;;;;;;5089498;28;20442;-59
2021/12/12 13:54:21;;;;;;;4.97;2.88;;;;;;;;;;5087536;28;20070;-59
2021/12/12 13:56:52;;;;;;;4.90;2.95;;;;;;;;;;5089929;28;20542;-59
2021/12/12 13:59:45;;;;;;;7.00;3.20;;;;;;;;;;5087047;28;20060;-59
2021/12/12 14:02:13;;;;;;;6.45;3.28;;;;;;;;;;5084073;28;20572;-59
2021/12/12 14:05:00;;;;;;;6.30;2.92;;;;;;;;;;5087043;28;20085;-60
2021/12/12 14:07:51;;;;;;;7.80;3.83;;;;;;;;;;5085912;28;20028;-59
2021/12/12 14:10:23;;;;;;;7.28;3.20;;;;;;;;;;5086247;28;20403;-59
2021/12/12 14:12:52;;;;;;;5.68;3.15;;;;;;;;;;5088158;28;20034;-58
2021/12/12 14:15:30;;;;;;;3.97;2.50;;;;;;;;;;5087832;28;20486;-58
2021/12/12 14:17:58;;;;;;;5.75;3.40;;;;;;;;;;5087802;28;20836;-58
2021/12/12 14:20:32;;;;;;;8.32;3.90;;;;;;;;;;5087972;28;20050;-58
2021/12/12 14:23:00;;;;;;;5.38;2.50;;;;;;;;;;5082641;28;20088;-58
2021/12/12 14:25:27;;;;;;;3.08;2.38;;;;;;;;;;5088048;28;20048;-57
2021/12/12 14:27:56;;;;;;;5.30;2.17;;;;;;;;;;5089333;28;20027;-60
2021/12/12 14:30:27;;;;;;;5.68;3.10;;;;;;;;;;5087345;28;20567;-59
2021/12/12 14:33:00;;;;;;;14.20;3.67;;;;;;;;;;5085271;28;20088;-60
2021/12/12 14:35:34;;;;;;;13.73;4.65;;;;;;;;;;5086436;28;20813;-58
2021/12/12 14:38:03;;;;;;;7.40;3.88;;;;;;;;;;5086533;28;20035;-58
2021/12/12 14:40:31;;;;;;;10.93;4.60;;;;;;;;;;5085709;28;20028;-59
2021/12/12 14:43:11;;;;;;;8.55;4.90;;;;;;;;;;5087735;28;20505;-58
2021/12/12 14:45:45;;;;;;;6.07;3.05;;;;;;;;;;5087312;28;20161;-58
2021/12/12 14:48:15;;;;;;;4.45;2.53;;;;;;;;;;5089610;28;20024;-60
2021/12/12 14:50:43;;;;;;;;;;;;;;;;;;5087460;28;20038;-61
2021/12/12 14:53:10;;;;;;;10.45;5.68;;;;;;;;;;5086908;28;20435;-61
2021/12/12 14:55:50;;;;;;;13.75;5.45;;;;;;;;;;5088163;28;20161;-60
2021/12/12 14:58:27;;;;;;;12.27;6.18;;;;;;;;;;5092457;28;20027;-61
2021/12/12 15:01:01;;;;;;;15.43;5.07;;;;;;;;;;5085890;28;20035;-59
2021/12/12 15:03:35;;;;;;;7.82;4.65;;;;;;;;;;5083868;28;20032;-59
2021/12/12 15:06:11;;;;;;;24.90;13.35;;;;;;;;;;5087721;28;20489;-60
2021/12/12 15:08:42;;;;;;;21.27;10.30;;;;;;;;;;5088255;28;20020;-60
2021/12/12 15:11:19;;;;;;;23.00;9.57;;;;;;;;;;5088370;28;20463;-61
2021/12/12 15:13:47;;;;;;;18.67;8.85;;;;;;;;;;5087494;28;20036;-59
2021/12/12 15:16:25;;;;;;;14.02;7.30;;;;;;;;;;5086536;28;20023;-59
2021/12/12 15:18:51;;;;;;;9.38;6.38;;;;;;;;;;5086547;28;20086;-59
2021/12/12 15:21:25;;;;;;;7.40;3.65;;;;;;;;;;5087021;28;20039;-59
2021/12/12 15:23:57;;;;;;;6.03;3.33;;;;;;;;;;5089395;28;20032;-59
2021/12/12 15:26:28;;;;;;;7.88;4.10;;;;;;;;;;5086391;28;20031;-59
2021/12/12 15:28:55;;;;;;;8.20;4.07;;;;;;;;;;5085597;28;20120;-59
2021/12/12 15:31:33;;;;;;;9.82;5.20;;;;;;;;;;5084985;28;20098;-58
2021/12/12 15:34:02;;;;;;;12.70;5.70;;;;;;;;;;5084825;28;20523;-59
2021/12/12 15:36:32;;;;;;;7.22;4.30;;;;;;;;;;5087121;28;20028;-59
2021/12/12 15:38:58;;;;;;;9.00;4.55;;;;;;;;;;5086295;28;20056;-59
2021/12/12 15:41:31;;;;;;;15.20;8.50;;;;;;;;;;5084964;28;20017;-59